Estación Meteorológica Peña el Pijo (Robertgarden) [ 07/23/19 14:24:25 CEST ]

Fecha Hora Presion(HPa) Temp (°C) Humedad % Rocio (°C) Viento ( m/s) Direccion Lluvia 1Hora(mm) Lluvia 24H(mm) LLuvia Total(mm)
2019-May-02 01:01:39 1004.800 12.5 90 10.9       10.36 315.46
2019-May-02 02:01:59 1004.400 12.9 90 11.3       10.36 315.46
2019-May-02 03:01:47 1004.800 13.5 91 12.1       10.36 315.46
2019-May-02 04:01:41 1005.500 12.3 90 10.7       10.36 315.46
2019-May-02 05:01:44 1005.000 11.6 91 10.2       10.36 315.46
2019-May-02 06:01:51 1004.500 11.1 91 9.7       10.36 315.46
2019-May-02 07:01:47 1004.300 13.0 92 11.7       9.84 315.46
2019-May-02 08:01:46 1004.600 15.0 89 13.2       9.84 315.46
2019-May-02 09:01:47 1004.900 15.6 76 11.4       9.84 315.46
2019-May-02 10:01:45 1005.300 19.8 64 12.8       9.84 315.46
2019-May-02 12:31:51 1005.100 20.4 47 8.7       9.84 315.46
2019-May-02 13:01:49 1005.000 21.8 47 9.9       9.32 315.46
2019-May-02 14:01:50 1004.700 21.3 44 8.5 4.9 ENE   8.28 315.46
2019-May-02 15:01:50 1003.700 21.9 42 8.4       5.18 315.46
2019-May-02 16:02:06 1003.600 20.9 42 7.5       2.07 315.46
2019-May-02 17:01:46 1003.400 20.9 43 7.8       1.55 315.46
2019-May-02 18:01:51 1003.100 20.9 41 7.1       1.03 315.46
2019-May-02 19:01:49 1003.200 20.1 44 7.4         315.46
2019-May-02 20:01:54 1003.600 17.3 46 5.5 0.8 WNW     315.46
2019-May-02 21:01:53 1003.800 14.9 52 5.1         315.46
2019-May-02 22:01:58 1004.600 13.2 57 4.8         315.46
2019-May-02 23:01:46 1005.100 12.4 60 4.9         315.46

Temperatura Máxima:21°    Temperatura Mínima:11°
Presión Máxima:1005.500 Hpa    Presión Mínima:1003.100 Hpa


Volver